createdAt,value
2018-07-12T00:01:51.151Z,36.40
2018-07-12T00:04:18.528Z,36.63
2018-07-12T00:06:45.881Z,36.07
2018-07-12T00:09:13.282Z,37.20
2018-07-12T00:11:40.619Z,36.23
2018-07-12T00:14:07.987Z,34.57
2018-07-12T00:16:35.353Z,33.53
2018-07-12T00:19:02.877Z,34.87
2018-07-12T00:21:30.242Z,34.97
2018-07-12T00:23:57.613Z,35.10
2018-07-12T00:26:24.963Z,36.30
2018-07-12T00:28:52.906Z,36.97
2018-07-12T00:31:20.271Z,37.73
2018-07-12T00:33:47.695Z,41.33
2018-07-12T00:36:15.183Z,43.53
2018-07-12T00:38:42.575Z,46.37
2018-07-12T00:41:10.156Z,45.80
2018-07-12T00:43:37.535Z,44.47
2018-07-12T00:46:04.882Z,46.90
2018-07-12T00:48:32.287Z,49.27
2018-07-12T00:50:59.683Z,49.60
2018-07-12T00:53:27.071Z,49.90
2018-07-12T00:55:54.446Z,52.13
2018-07-12T00:58:21.786Z,49.03
2018-07-12T01:00:49.158Z,47.53
2018-07-12T01:03:16.500Z,46.53
2018-07-12T01:05:43.876Z,45.97
2018-07-12T01:08:11.223Z,50.77
2018-07-12T01:10:38.595Z,54.30
2018-07-12T01:13:06.764Z,51.17
2018-07-12T01:15:34.156Z,50.33
2018-07-12T01:18:01.503Z,51.07
2018-07-12T01:20:28.878Z,48.63
2018-07-12T01:22:56.261Z,50.27
2018-07-12T01:25:23.631Z,51.33
2018-07-12T01:27:50.990Z,45.93
2018-07-12T01:30:18.363Z,46.93
2018-07-12T01:32:45.720Z,52.70
2018-07-12T01:35:13.086Z,50.50
2018-07-12T01:37:40.727Z,50.33
2018-07-12T01:40:08.100Z,48.20
2018-07-12T01:42:35.451Z,45.73
2018-07-12T01:45:03.097Z,46.43
2018-07-12T01:47:30.463Z,47.73
2018-07-12T01:49:57.815Z,42.97
2018-07-12T01:52:25.179Z,44.00
2018-07-12T01:54:52.576Z,43.27
2018-07-12T01:57:20.012Z,46.10
2018-07-12T01:59:47.362Z,43.23
2018-07-12T02:02:14.801Z,43.93
2018-07-12T02:04:42.183Z,44.93
2018-07-12T02:07:09.587Z,45.47
2018-07-12T02:09:36.938Z,44.73
2018-07-12T02:12:04.303Z,44.50
2018-07-12T02:14:31.687Z,47.40
2018-07-12T02:16:59.114Z,47.00
2018-07-12T02:19:26.594Z,49.37
2018-07-12T02:21:53.954Z,49.30
2018-07-12T02:24:21.310Z,48.57
2018-07-12T02:26:48.681Z,45.07
2018-07-12T02:29:16.024Z,47.73
2018-07-12T02:31:43.392Z,50.30
2018-07-12T02:34:10.756Z,46.00
2018-07-12T02:36:38.131Z,48.93
2018-07-12T02:39:05.681Z,49.10
2018-07-12T02:41:33.067Z,48.40
2018-07-12T02:44:00.428Z,50.53
2018-07-12T02:46:27.807Z,53.03
2018-07-12T02:48:55.160Z,50.43
2018-07-12T02:51:22.512Z,51.50
2018-07-12T02:53:50.064Z,44.73
2018-07-12T02:56:17.428Z,43.73
2018-07-12T02:58:44.808Z,43.00
2018-07-12T03:01:12.164Z,45.30
2018-07-12T03:03:39.543Z,41.30
2018-07-12T03:06:06.915Z,41.07
2018-07-12T03:08:34.316Z,44.83
2018-07-12T03:11:01.704Z,44.47
2018-07-12T03:13:29.080Z,41.90
2018-07-12T03:15:56.427Z,41.17
2018-07-12T03:18:23.796Z,41.80
2018-07-12T03:20:51.147Z,45.00
2018-07-12T03:23:18.573Z,39.90
2018-07-12T03:25:46.078Z,39.43
2018-07-12T03:28:13.461Z,40.83
2018-07-12T03:30:40.864Z,43.53
2018-07-12T03:33:08.223Z,48.87
2018-07-12T03:35:35.638Z,50.03
2018-07-12T03:38:03.024Z,43.43
2018-07-12T03:40:30.462Z,41.07
2018-07-12T03:42:57.978Z,46.63
2018-07-12T03:45:25.330Z,41.13
2018-07-12T03:47:52.707Z,43.30
2018-07-12T03:50:20.059Z,42.73
2018-07-12T03:52:47.467Z,42.90
2018-07-12T03:55:14.902Z,43.20
2018-07-12T03:57:42.285Z,45.27
2018-07-12T04:00:09.652Z,43.50
2018-07-12T04:02:37.072Z,47.13
2018-07-12T04:05:04.459Z,44.13
2018-07-12T04:07:31.924Z,43.57
2018-07-12T04:09:59.294Z,41.37
2018-07-12T04:12:26.901Z,42.80
2018-07-12T04:14:54.270Z,43.17
2018-07-12T04:17:31.944Z,42.47
2018-07-12T04:20:00.456Z,40.67
2018-07-12T04:22:29.106Z,38.80
2018-07-12T04:24:56.639Z,39.87
2018-07-12T04:27:24.426Z,42.87
2018-07-12T04:29:52.975Z,40.67
2018-07-12T04:32:20.395Z,38.93
2018-07-12T04:34:48.637Z,40.80
2018-07-12T04:37:16.300Z,38.80
2018-07-12T04:39:43.745Z,39.17
2018-07-12T04:42:11.116Z,39.90
2018-07-12T04:44:38.478Z,36.60
2018-07-12T04:47:05.939Z,40.47
2018-07-12T04:49:33.310Z,39.67
2018-07-12T04:52:01.225Z,36.03
2018-07-12T04:54:29.163Z,34.30
2018-07-12T04:56:56.524Z,36.83
2018-07-12T04:59:23.906Z,38.53
2018-07-12T05:01:51.251Z,35.87
2018-07-12T05:04:18.608Z,35.13
2018-07-12T05:06:45.982Z,36.27
2018-07-12T05:09:13.320Z,35.20
2018-07-12T05:11:40.704Z,32.10
2018-07-12T05:14:08.577Z,31.80
2018-07-12T05:16:35.992Z,31.10
2018-07-12T05:19:03.353Z,30.83
2018-07-12T05:21:30.731Z,31.50
2018-07-12T05:23:58.079Z,28.47
2018-07-12T05:26:25.463Z,29.60
2018-07-12T05:28:52.821Z,28.53
2018-07-12T05:31:20.228Z,28.37
2018-07-12T05:33:47.580Z,24.50
2018-07-12T05:36:30.215Z,26.87
2018-07-12T05:38:58.665Z,24.17
2018-07-12T05:41:27.139Z,24.20
2018-07-12T05:43:55.677Z,25.47
2018-07-12T05:46:24.868Z,24.73
2018-07-12T05:48:53.359Z,24.83
2018-07-12T05:51:21.864Z,23.17
2018-07-12T05:53:50.517Z,21.07
2018-07-12T05:56:18.971Z,22.37
2018-07-12T05:58:47.431Z,22.73
2018-07-12T06:01:27.167Z,20.57
2018-07-12T06:03:55.790Z,19.93
2018-07-12T06:06:24.922Z,18.63
2018-07-12T06:08:53.516Z,18.40
2018-07-12T06:11:21.955Z,18.60
2018-07-12T06:13:50.458Z,15.43
2018-07-12T06:16:18.907Z,17.37
2018-07-12T06:18:47.406Z,14.90
2018-07-12T06:21:16.016Z,14.30
2018-07-12T06:23:44.194Z,14.90
2018-07-12T06:26:12.676Z,12.07
2018-07-12T06:28:41.143Z,11.70
2018-07-12T06:31:09.655Z,10.93
2018-07-12T06:33:38.099Z,8.97
2018-07-12T06:36:06.627Z,9.50
2018-07-12T06:38:35.108Z,9.27
2018-07-12T06:41:03.620Z,9.43
2018-07-12T06:43:32.089Z,8.57
2018-07-12T06:46:00.640Z,8.17
2018-07-12T06:48:29.150Z,9.03
2018-07-12T06:50:57.636Z,8.10
2018-07-12T06:53:26.139Z,8.87
2018-07-12T06:55:55.127Z,7.53
2018-07-12T06:58:23.993Z,8.83
2018-07-12T07:00:52.458Z,8.23
2018-07-12T07:03:20.938Z,7.43
2018-07-12T07:05:49.424Z,7.93
2018-07-12T07:08:18.050Z,8.03
2018-07-12T07:10:46.569Z,8.03
2018-07-12T07:13:15.135Z,7.50
2018-07-12T07:15:43.591Z,7.43
2018-07-12T07:18:12.610Z,8.05
2018-07-12T07:20:41.700Z,7.50
2018-07-12T07:23:10.686Z,6.85
2018-07-12T07:25:39.803Z,7.65
2018-07-12T07:28:08.993Z,7.28
2018-07-12T07:30:38.002Z,7.08
2018-07-12T07:33:07.028Z,6.92
2018-07-12T07:35:36.082Z,7.22
2018-07-12T07:38:05.391Z,6.78
2018-07-12T07:40:34.658Z,6.90
2018-07-12T07:43:03.536Z,7.17
2018-07-12T07:45:32.097Z,7.27
2018-07-12T07:48:00.245Z,7.13
2018-07-12T07:50:28.704Z,7.37
2018-07-12T07:52:57.110Z,6.73
2018-07-12T07:55:25.555Z,6.63
2018-07-12T07:57:54.008Z,7.00
2018-07-12T08:00:22.479Z,6.30
2018-07-12T08:02:51.890Z,5.80
2018-07-12T08:05:20.363Z,6.27
2018-07-12T08:07:49.662Z,6.37
2018-07-12T08:10:19.652Z,5.62
2018-07-12T08:12:48.950Z,6.15
2018-07-12T08:15:18.362Z,5.87
2018-07-12T08:17:47.399Z,6.15
2018-07-12T08:20:16.522Z,5.92
2018-07-12T08:22:45.519Z,6.17
2018-07-12T08:25:14.877Z,5.22
2018-07-12T08:27:55.207Z,5.50
2018-07-12T08:30:24.241Z,5.70
2018-07-12T08:32:53.247Z,4.97
2018-07-12T08:35:22.243Z,5.53
2018-07-12T08:37:51.255Z,5.03
2018-07-12T08:40:20.641Z,5.62
2018-07-12T08:42:49.719Z,5.45
2018-07-12T08:45:18.931Z,5.03
2018-07-12T08:47:47.928Z,5.05
2018-07-12T08:50:18.294Z,5.25
2018-07-12T08:52:47.367Z,4.80
2018-07-12T08:55:16.360Z,5.00
2018-07-12T08:57:46.064Z,5.53
2018-07-12T09:00:15.155Z,5.55
2018-07-12T09:02:44.352Z,5.67
2018-07-12T09:05:13.508Z,5.85
2018-07-12T09:07:42.596Z,4.65
2018-07-12T09:10:12.555Z,5.90
2018-07-12T09:12:41.907Z,6.62
2018-07-12T09:15:11.140Z,6.53
2018-07-12T09:17:40.140Z,5.85
2018-07-12T09:20:09.160Z,6.15
2018-07-12T09:22:38.179Z,6.08
2018-07-12T09:25:06.639Z,5.63
2018-07-12T09:27:35.091Z,5.87
2018-07-12T09:30:03.637Z,5.83
2018-07-12T09:32:32.094Z,6.70
2018-07-12T09:35:00.593Z,6.67
2018-07-12T09:37:29.036Z,7.37
2018-07-12T09:39:57.753Z,6.33
2018-07-12T09:42:26.183Z,5.47
2018-07-12T09:44:54.630Z,6.97
2018-07-12T09:47:23.448Z,7.00
2018-07-12T09:49:52.112Z,6.33
2018-07-12T09:52:25.942Z,6.80
2018-07-12T09:54:54.431Z,7.00
2018-07-12T09:57:33.989Z,7.50
2018-07-12T10:00:02.692Z,7.63
2018-07-12T10:02:36.490Z,8.20
2018-07-12T10:05:09.435Z,7.93
2018-07-12T10:07:47.107Z,9.53
2018-07-12T10:10:15.598Z,10.00
2018-07-12T10:12:49.431Z,10.10
2018-07-12T10:15:23.239Z,10.73
2018-07-12T10:17:55.926Z,10.00
2018-07-12T10:20:24.407Z,9.80
2018-07-12T10:22:53.115Z,9.50
2018-07-12T10:25:21.595Z,9.60
2018-07-12T10:27:50.201Z,9.33
2018-07-12T10:30:19.461Z,9.53
2018-07-12T10:32:47.628Z,8.47
2018-07-12T10:35:16.096Z,8.87
2018-07-12T10:37:44.539Z,8.33
2018-07-12T10:40:13.003Z,9.47
2018-07-12T10:42:41.469Z,9.90
2018-07-12T10:45:09.934Z,8.53
2018-07-12T10:47:38.415Z,9.97
2018-07-12T10:50:06.940Z,10.13
2018-07-12T10:52:35.421Z,8.33
2018-07-12T10:55:04.339Z,8.70
2018-07-12T10:57:32.794Z,8.77
2018-07-12T11:00:01.246Z,9.40
2018-07-12T11:02:29.715Z,10.20
2018-07-12T11:04:58.183Z,9.90
2018-07-12T11:07:26.655Z,9.60
2018-07-12T11:09:55.147Z,10.20
2018-07-12T11:12:23.594Z,10.03
2018-07-12T11:14:52.126Z,9.07
2018-07-12T11:17:20.638Z,9.70
2018-07-12T11:19:48.826Z,8.27
2018-07-12T11:22:17.630Z,9.27
2018-07-12T11:24:46.120Z,10.20
2018-07-12T11:27:14.614Z,10.23
2018-07-12T11:29:53.606Z,9.70
2018-07-12T11:32:22.627Z,10.75
2018-07-12T11:34:51.554Z,10.93
2018-07-12T11:37:23.785Z,10.87
2018-07-12T11:39:52.554Z,11.30
2018-07-12T11:42:21.067Z,10.30
2018-07-12T11:44:50.124Z,10.60
2018-07-12T11:47:19.135Z,9.80
2018-07-12T11:49:47.654Z,8.87
2018-07-12T11:52:16.400Z,9.80
2018-07-12T11:54:44.942Z,8.83
2018-07-12T11:57:13.463Z,9.13
2018-07-12T11:59:42.271Z,8.33
2018-07-12T12:02:10.868Z,9.10
2018-07-12T12:04:39.494Z,9.13
2018-07-12T12:07:07.986Z,8.13
2018-07-12T12:09:36.490Z,9.63
2018-07-12T12:12:05.024Z,9.50
2018-07-12T12:14:33.786Z,9.33
2018-07-12T12:17:02.666Z,8.50
2018-07-12T12:19:31.361Z,7.23
2018-07-12T12:22:00.544Z,9.60
2018-07-12T12:24:29.153Z,8.93
2018-07-12T12:26:57.659Z,8.13
2018-07-12T12:29:26.174Z,7.83
2018-07-12T12:31:54.868Z,8.13
2018-07-12T12:34:23.414Z,7.23
2018-07-12T12:36:51.879Z,7.40
2018-07-12T12:39:20.374Z,7.27
2018-07-12T12:41:48.869Z,6.63
2018-07-12T12:44:17.527Z,7.83
2018-07-12T12:46:46.015Z,7.50
2018-07-12T12:49:14.505Z,6.13
2018-07-12T12:51:42.983Z,6.83
2018-07-12T12:54:11.475Z,6.10
2018-07-12T12:56:39.982Z,5.93
2018-07-12T12:59:08.474Z,5.80
2018-07-12T13:01:36.988Z,5.90
2018-07-12T13:04:05.660Z,5.43
2018-07-12T13:06:34.171Z,5.33
2018-07-12T13:09:02.719Z,5.37
2018-07-12T13:11:31.228Z,5.77
2018-07-12T13:13:59.699Z,5.63
2018-07-12T13:16:28.192Z,5.27
2018-07-12T13:18:56.691Z,4.53
2018-07-12T13:21:25.208Z,4.47
2018-07-12T13:23:53.699Z,4.93
2018-07-12T13:26:22.273Z,5.00
2018-07-12T13:28:52.138Z,5.37
2018-07-12T13:31:20.671Z,4.70
2018-07-12T13:33:49.200Z,4.00
2018-07-12T13:36:17.691Z,4.17
2018-07-12T13:38:46.191Z,4.57
2018-07-12T13:41:15.144Z,4.60
2018-07-12T13:43:43.628Z,4.57
2018-07-12T13:46:12.472Z,5.10
2018-07-12T13:48:40.954Z,4.60
2018-07-12T13:51:09.479Z,4.73
2018-07-12T13:53:38.339Z,4.97
2018-07-12T13:56:06.886Z,4.57
2018-07-12T13:58:35.536Z,4.53
2018-07-12T14:01:04.452Z,4.00
2018-07-12T14:03:32.944Z,3.60
2018-07-12T14:06:01.459Z,4.03
2018-07-12T14:08:29.935Z,4.30
2018-07-12T14:10:58.429Z,3.80
2018-07-12T14:13:26.963Z,3.93
2018-07-12T14:15:55.451Z,4.30
2018-07-12T14:18:24.363Z,3.63
2018-07-12T14:20:52.863Z,4.00
2018-07-12T14:23:21.380Z,3.70
2018-07-12T14:25:49.866Z,3.50
2018-07-12T14:28:18.359Z,3.70
2018-07-12T14:30:46.886Z,4.23
2018-07-12T14:33:16.057Z,3.77
2018-07-12T14:35:44.817Z,3.67
2018-07-12T14:38:13.227Z,3.73
2018-07-12T14:40:42.045Z,3.93
2018-07-12T14:43:10.868Z,3.70
2018-07-12T14:45:39.559Z,3.50
2018-07-12T14:48:08.173Z,3.57
2018-07-12T14:50:36.743Z,3.30
2018-07-12T14:53:05.558Z,3.77
2018-07-12T14:55:34.035Z,4.17
2018-07-12T14:58:02.963Z,3.50
2018-07-12T15:00:31.547Z,3.47
2018-07-12T15:03:00.063Z,3.30
2018-07-12T15:05:29.545Z,3.40
2018-07-12T15:07:58.207Z,3.53
2018-07-12T15:10:26.892Z,3.27
2018-07-12T15:12:56.201Z,3.90
2018-07-12T15:15:24.752Z,3.90
2018-07-12T15:17:53.477Z,4.17
2018-07-12T15:20:21.983Z,4.50
2018-07-12T15:22:50.892Z,3.70
2018-07-12T15:25:19.409Z,4.20
2018-07-12T15:27:47.908Z,3.20
2018-07-12T15:30:16.254Z,3.27
2018-07-12T15:32:44.785Z,3.70
2018-07-12T15:35:13.286Z,3.90
2018-07-12T15:37:41.756Z,3.00
2018-07-12T15:40:10.266Z,2.80
2018-07-12T15:42:38.740Z,3.10
2018-07-12T15:45:07.248Z,3.60
2018-07-12T15:47:35.923Z,3.00
2018-07-12T15:50:04.475Z,3.03
2018-07-12T15:52:32.975Z,3.83
2018-07-12T15:55:01.785Z,3.90
2018-07-12T15:57:30.279Z,5.40
2018-07-12T15:59:58.790Z,5.47
2018-07-12T16:02:27.282Z,6.70
2018-07-12T16:04:55.791Z,6.50
2018-07-12T16:07:24.296Z,6.50
2018-07-12T16:09:52.780Z,6.97
2018-07-12T16:12:21.262Z,7.03
2018-07-12T16:14:49.760Z,7.40
2018-07-12T16:17:18.279Z,7.00
2018-07-12T16:19:46.766Z,7.77
2018-07-12T16:22:15.296Z,8.43
2018-07-12T16:24:43.803Z,8.97
2018-07-12T16:27:12.273Z,8.30
2018-07-12T16:29:40.786Z,8.13
2018-07-12T16:32:09.295Z,8.87
2018-07-12T16:34:37.795Z,8.00
2018-07-12T16:37:06.652Z,8.87
2018-07-12T16:39:35.351Z,8.97
2018-07-12T16:42:03.918Z,8.60
2018-07-12T16:44:32.424Z,7.83
2018-07-12T16:47:00.911Z,8.50
2018-07-12T16:49:29.431Z,8.00
2018-07-12T16:51:57.919Z,8.17
2018-07-12T16:54:26.576Z,8.80
2018-07-12T16:56:55.270Z,8.67
2018-07-12T16:59:23.764Z,8.37
2018-07-12T17:01:52.250Z,9.23
2018-07-12T17:04:21.127Z,9.87
2018-07-12T17:06:49.626Z,10.20
2018-07-12T17:09:18.113Z,10.43
2018-07-12T17:11:46.626Z,11.50
2018-07-12T17:14:15.093Z,11.07
2018-07-12T17:16:43.615Z,11.77
2018-07-12T17:19:12.119Z,11.60
2018-07-12T17:21:40.635Z,11.63
2018-07-12T17:24:09.140Z,12.33
2018-07-12T17:26:37.687Z,11.57
2018-07-12T17:29:06.230Z,12.30
2018-07-12T17:31:34.795Z,13.17
2018-07-12T17:34:03.327Z,11.70
2018-07-12T17:36:31.902Z,11.23
2018-07-12T17:39:00.395Z,10.33
2018-07-12T17:41:28.941Z,9.67
2018-07-12T17:43:57.970Z,9.47
2018-07-12T17:46:26.510Z,10.53
2018-07-12T17:48:55.031Z,10.43
2018-07-12T17:51:23.566Z,11.23
2018-07-12T17:53:52.152Z,10.93
2018-07-12T17:56:21.636Z,10.80
2018-07-12T17:58:51.707Z,10.90
2018-07-12T18:01:20.384Z,9.73
2018-07-12T18:03:49.281Z,8.97
2018-07-12T18:06:17.823Z,9.40
2018-07-12T18:08:47.112Z,10.30
2018-07-12T18:11:16.099Z,10.67
2018-07-12T18:13:45.160Z,10.60
2018-07-12T18:16:13.767Z,10.63
2018-07-12T18:18:42.952Z,10.10
2018-07-12T18:21:11.511Z,10.00
2018-07-12T18:23:40.302Z,10.87
2018-07-12T18:26:09.077Z,11.67
2018-07-12T18:28:37.660Z,10.77
2018-07-12T18:31:06.802Z,10.97
2018-07-12T18:33:35.323Z,11.90
2018-07-12T18:36:03.872Z,11.40
2018-07-12T18:38:34.972Z,10.97
2018-07-12T18:41:08.701Z,11.83
2018-07-12T18:43:37.599Z,12.40
2018-07-12T18:46:06.672Z,11.93
2018-07-12T18:48:36.842Z,12.63
2018-07-12T18:51:06.539Z,13.10
2018-07-12T18:53:35.026Z,12.77
2018-07-12T18:56:03.555Z,12.40
2018-07-12T18:58:32.055Z,12.90
2018-07-12T19:01:00.597Z,12.43
2018-07-12T19:03:29.091Z,12.50
2018-07-12T19:05:57.578Z,13.40
2018-07-12T19:08:26.078Z,14.07
2018-07-12T19:10:54.595Z,12.67
2018-07-12T19:13:23.162Z,13.07
2018-07-12T19:15:51.651Z,13.97
2018-07-12T19:18:21.368Z,13.40
2018-07-12T19:20:50.595Z,15.37
2018-07-12T19:23:19.235Z,15.30
2018-07-12T19:25:47.785Z,15.07
2018-07-12T19:28:16.295Z,15.87
2018-07-12T19:30:44.783Z,16.87
2018-07-12T19:33:13.307Z,18.07
2018-07-12T19:35:41.802Z,16.97
2018-07-12T19:38:10.303Z,17.93
2018-07-12T19:40:38.863Z,18.63
2018-07-12T19:43:07.374Z,18.00
2018-07-12T19:45:35.901Z,19.87
2018-07-12T19:48:06.073Z,18.13
2018-07-12T19:50:34.676Z,17.70
2018-07-12T19:53:03.317Z,15.97
2018-07-12T19:55:32.166Z,14.63
2018-07-12T19:58:01.732Z,13.50
2018-07-12T20:00:30.380Z,15.17
2018-07-12T20:02:59.248Z,14.50
2018-07-12T20:05:27.746Z,14.90
2018-07-12T20:07:56.267Z,15.73
2018-07-12T20:10:24.751Z,17.23
2018-07-12T20:12:53.295Z,14.57
2018-07-12T20:15:21.809Z,13.53
2018-07-12T20:17:50.631Z,14.60
2018-07-12T20:20:19.533Z,14.43
2018-07-12T20:22:48.060Z,13.73
2018-07-12T20:25:16.660Z,14.93
2018-07-12T20:27:45.295Z,15.93
2018-07-12T20:30:14.106Z,15.53
2018-07-12T20:32:42.611Z,15.27
2018-07-12T20:38:09.910Z,14.67
2018-07-12T20:40:38.401Z,16.20
2018-07-12T20:43:06.963Z,16.70
2018-07-12T20:45:36.097Z,16.80
2018-07-12T20:48:04.704Z,15.07
2018-07-12T20:50:33.347Z,15.57
2018-07-12T20:53:02.161Z,16.17
2018-07-12T20:55:30.655Z,16.07
2018-07-12T20:57:59.167Z,15.53
2018-07-12T21:00:27.652Z,18.20
2018-07-12T21:02:56.208Z,15.73
2018-07-12T21:08:23.628Z,15.67
2018-07-12T21:10:52.135Z,14.77
2018-07-12T21:13:20.618Z,15.90
2018-07-12T21:15:50.118Z,16.57
2018-07-12T21:18:18.648Z,16.47
2018-07-12T21:20:47.127Z,17.37
2018-07-12T21:23:15.680Z,17.17
2018-07-12T21:25:44.190Z,15.47
2018-07-12T21:28:12.707Z,16.20
2018-07-12T21:30:41.195Z,15.03
2018-07-12T21:33:09.701Z,14.70
2018-07-12T21:35:38.170Z,13.80
2018-07-12T21:38:06.661Z,15.63
2018-07-12T21:40:35.127Z,16.53
2018-07-12T21:43:03.684Z,15.93
2018-07-12T21:45:32.151Z,16.10
2018-07-12T21:48:00.664Z,15.77
2018-07-12T21:50:29.188Z,16.63
2018-07-12T21:52:57.679Z,15.10
2018-07-12T21:55:26.151Z,15.20
2018-07-12T21:57:54.673Z,15.83
2018-07-12T22:00:23.175Z,16.10
2018-07-12T22:02:51.707Z,16.63
2018-07-12T22:05:20.386Z,17.17
2018-07-12T22:08:10.371Z,16.77
2018-07-12T22:10:38.863Z,15.90
2018-07-12T22:13:07.543Z,17.83
2018-07-12T22:15:36.871Z,17.50
2018-07-12T22:18:05.394Z,17.80
2018-07-12T22:20:33.952Z,17.93
2018-07-12T22:23:02.634Z,17.33
2018-07-12T22:25:31.159Z,17.57
2018-07-12T22:27:59.646Z,17.57
2018-07-12T22:30:28.788Z,18.40
2018-07-12T22:32:57.815Z,17.17
2018-07-12T22:35:26.347Z,16.17
2018-07-12T22:37:54.842Z,17.83
2018-07-12T22:40:23.312Z,18.30
2018-07-12T22:42:51.832Z,17.73
2018-07-12T22:45:20.318Z,16.67
2018-07-12T22:47:48.873Z,16.03
2018-07-12T22:50:17.547Z,16.17
2018-07-12T22:52:46.035Z,18.10
2018-07-12T22:55:14.524Z,16.23
2018-07-12T22:57:43.031Z,17.37
2018-07-12T23:00:11.549Z,16.70
2018-07-12T23:02:40.175Z,17.27
2018-07-12T23:05:08.744Z,17.03
2018-07-12T23:07:37.654Z,17.37
2018-07-12T23:10:06.495Z,16.53
2018-07-12T23:12:34.991Z,17.97
2018-07-12T23:15:03.490Z,17.07
2018-07-12T23:17:31.996Z,15.27
2018-07-12T23:20:00.499Z,14.07
2018-07-12T23:22:29.028Z,16.77
2018-07-12T23:24:57.873Z,15.43
2018-07-12T23:27:26.350Z,15.77
2018-07-12T23:29:54.894Z,15.23
2018-07-12T23:32:23.420Z,14.70
2018-07-12T23:34:51.904Z,15.13
2018-07-12T23:37:20.395Z,14.17
2018-07-12T23:39:48.934Z,13.73
2018-07-12T23:42:17.443Z,14.50
2018-07-12T23:44:45.951Z,14.10
2018-07-12T23:47:14.428Z,15.03
2018-07-12T23:49:43.290Z,15.50
2018-07-12T23:52:11.804Z,13.97
2018-07-12T23:54:40.303Z,14.83
2018-07-12T23:57:08.853Z,14.93
2018-07-12T23:59:37.929Z,15.03
